Blue Oak Ranch Reserve, California Weather observations

Data are for 10 minute period ending at time listed.
 Day   Time   Solar   Ave.   Ave.  Ave.  Vector  Max.   Baro.   Total    
  of    of     Rad.   Air    Rel.  Wind   Wind   Wind  Press.  Precip.   
Year   Day            Temp.  Hum.  Speed  Dir.   Gust                    
2026   (PST)  Kw/m2    F      %     mph   deg.    mph    mb.     in.     
-------------------------------------------------------------------------
 243   14:30   0.78   68.3    51    6.9   243    12.6   947.8    0.00 
 243   14:40   0.75   68.3    51    7.5   234    13.2   947.8    0.00 
 243   14:50   0.73   69.1    50    6.3   241    10.3   947.8    0.00 
 243   15:00   0.70   68.6    51    6.1   244    12.7   947.8    0.00 
 243   15:10   0.68   69.4    50    6.8   251    12.6   947.7    0.00 
 243   15:20   0.66   68.1    53    7.4   236    12.1   947.7    0.00 
 243   15:30   0.61   67.7    53    5.8   236     9.7   947.6    0.00 
 243   15:40   0.53   66.9    55    6.6   226    10.9   947.5    0.00 
 243   15:50   0.56   66.4    56    6.5   232    11.3   947.5    0.00 
 243   16:00   0.41   67.2    55    7.2   262    11.5   947.5    0.00 
 243   16:10   0.47   68.0    54    6.5   275    11.0   947.4    0.00 
 243   16:20   0.47   68.5    53    6.1   278     9.6   947.3    0.00 
 243   16:30   0.42   67.7    54    5.1   272     9.2   947.2    0.00 
 243   16:40   0.39   67.0    56    6.0   257    10.0   947.2    0.00 
 243   16:50   0.33   66.4    56    6.1   272    11.6   947.2    0.00 
 243   17:00   0.28   66.1    56    8.5   279    12.4   947.4    0.00 
 243   17:10   0.28   65.0    58    8.2   282    12.5   947.5    0.00 
 243   17:20   0.21   63.3    62    7.3   281    10.7   947.5    0.00 
 243   17:30   0.18   62.3    64    6.7   280    11.3   947.5    0.00 
 243   17:40   0.17   62.1    64    6.9   279    10.3   947.4    0.00 
 243   17:50   0.15   61.2    66    6.0   292    10.2   947.2    0.00 
 243   18:00   0.07   60.2    68    7.1   279     9.9   947.2    0.00 
 243   18:10   0.07   58.8    72    7.0   286     9.9   947.3    0.00 
 243   18:20   0.05   58.0    73    6.9   283     9.6   947.4    0.00 
 243   18:30   0.02   57.0    75    5.8   296     9.1   947.4    0.00 
 243   18:40   0.01   56.3    76    4.6   287     7.2   947.5    0.00 
 243   18:50   0.00   55.5    77    4.0   276     6.7   947.5    0.00 
 243   19:00   0.00   54.8    79    3.5   297     4.7   947.5    0.00 
 243   19:10   0.00   54.3    80    3.9   305     5.0   947.5    0.00 
 243   19:20   0.00   53.8    82    4.2   291     5.4   947.6    0.00 
 243   19:30   0.00   53.6    83    5.4   288     7.5   947.8    0.00 
 243   19:40   0.00   53.3    84    3.9   303     6.2   948.0    0.00 
 243   19:50   0.00   53.1    86    2.8   308     6.9   948.0    0.00 
 243   20:00   0.00   53.0    86    2.5   303     4.9   948.0    0.00 
 243   20:10   0.00   52.8    86    3.9   296     8.7   948.1    0.00 
 243   20:20   0.00   53.0    86    4.3   298     7.3   948.2    0.00 
 243   20:30   0.00   53.0    86    3.5   293     8.0   948.3    0.00 
 243   20:40   0.00   52.9    86    0.9   301     3.8   948.3    0.00 
 243   20:50   0.00   53.0    87    3.9   283     6.8   948.3    0.00 
 243   21:00   0.00   53.2    86    3.8   301     5.9   948.3    0.00 
 243   21:10   0.00   53.3    86    2.0   305     4.2   948.4    0.00 
 243   21:20   0.00   53.4    86    3.8   288     6.2   948.5    0.00 
 243   21:30   0.00   53.5    86    4.8   293     7.5   948.6    0.00 
 243   21:40   0.00   53.5    86    4.3   289     7.7   948.7    0.00 
 243   21:50   0.00   53.4    86    4.4   287     6.7   948.6    0.00 
 243   22:00   0.00   53.3    85    4.2   291     7.9   948.7    0.00 
 243   22:10   0.00   53.4    84    4.7   300     6.8   948.7    0.00 
 243   22:20   0.00   53.3    84    6.0   295     8.8   948.7    0.00 
 243   22:30   0.00   53.2    85    4.9   299     7.6   948.6    0.00 
 243   22:40   0.00   53.2    84    5.7   295     9.1   948.5    0.00 
 243   22:50   0.00   53.2    84    4.4   307     7.7   948.4    0.00 
 243   23:00   0.00   53.2    84    5.0   310     7.6   948.4    0.00 
 243   23:10   0.00   53.1    85    4.2   308     6.5   948.4    0.00 
 243   23:20   0.00   53.2    84    4.0   304     6.4   948.4    0.00 
 243   23:30   0.00   53.3    84    3.9   294     6.9   948.5    0.00 
 243   23:40   0.00   53.3    84    3.9   312     6.7   948.4    0.00 
 243   23:50   0.00   53.3    83    3.0   304     5.3   948.4    0.00 
 244    0:00   0.00   53.4    82    1.3   294     3.8   948.4    0.00 
 244    0:10   0.00   53.5    81    1.4   289     2.9   948.4    0.00 
 244    0:20   0.00   53.5    80    2.5   300     4.1   948.4    0.00 
 244    0:30   0.00   53.4    80    1.4   272     3.6   948.4    0.00 
 244    0:40   0.00   53.4    81    2.0   261     3.9   948.4    0.00 
 244    0:50   0.00   53.1    83    2.0   247     4.5   948.2    0.00 
 244    1:00   0.00   52.9    80    2.8   276     5.2   948.1    0.00 
 244    1:10   0.00   52.8    79    2.3   296     3.9   948.1    0.00 
 244    1:20   0.00   52.7    79    3.0   306     5.3   948.2    0.00 
 244    1:30   0.00   52.9    79    3.0   274     6.4   948.3    0.00 
 244    1:40   0.00   52.9    79    3.4   300     7.0   948.2    0.00 
 244    1:50   0.00   52.8    78    4.1   288     7.7   948.3    0.00 
 244    2:00   0.00   52.6    78    3.8   295     6.6   948.3    0.00 
 244    2:10   0.00   52.6    78    4.3   293     8.2   948.4    0.00 
 244    2:20   0.00   52.7    78    3.7   282     5.8   948.4    0.00 
 244    2:30   0.00   52.8    78    3.7   274     8.6   948.5    0.00 
 244    2:40   0.00   52.8    76    3.8   277     8.0   948.5    0.00 
 244    2:50   0.00   52.8    76    3.6   265     7.0   948.6    0.00 
 244    3:00   0.00   52.7    76    3.5   286     7.1   948.6    0.00 
 244    3:10   0.00   52.7    75    3.9   295     7.2   948.6    0.00 
 244    3:20   0.00   52.7    76    3.3   263     6.0   948.7    0.00 
 244    3:30   0.00   52.8    76    4.6   277     7.8   948.8    0.00 
 244    3:40   0.00   52.8    76    4.4   292     7.5   948.8    0.00 
 244    3:50   0.00   52.7    77    3.4   246     7.2   948.7    0.00 
 244    4:00   0.00   52.5    76    3.8   262     7.9   948.6    0.00 
 244    4:10   0.00   52.5    75    3.8   316     7.5   948.4    0.00 
 244    4:20   0.00   52.4    75    4.0   306     6.5   948.5    0.00 
 244    4:30   0.00   52.4    76    4.0   261     8.7   948.6    0.00 
 244    4:40   0.00   52.4    76    0.2   284     1.5   948.7    0.00 
 244    4:50   0.00   52.5    76    1.2   281     3.4   948.8    0.00 
 244    5:00   0.00   52.4    76    3.0   231     5.9   948.7    0.00 
 244    5:10   0.00   52.4    76    3.3   284     5.6   948.6    0.00 
 244    5:20   0.00   52.3    76    3.2   297     5.8   948.8    0.00 
 244    5:30   0.00   52.3    74    1.2   216     2.8   948.9    0.00 
 244    5:40   0.00   52.3    75    1.4   232     2.5   949.0    0.00 
 244    5:50   0.01   52.4    74    1.2   264     2.3   949.0    0.00 
 244    6:00   0.01   52.5    74    2.0   260     3.7   949.0    0.00 
 244    6:10   0.02   52.7    74    1.8   269     2.9   949.1    0.00 
 244    6:20   0.03   52.8    73    1.4   263     2.6   949.4    0.00 
 244    6:30   0.04   53.0    73    1.4   236     2.8   949.5    0.00 
 244    6:40   0.06   53.3    73    2.2   226     4.2   949.6    0.00 
 244    6:50   0.08   53.5    72    3.5   258     6.8   949.6    0.00 
 244    7:00   0.09   53.7    71    3.7   236     6.4   949.8    0.00 
 244    7:10   0.10   53.7    71    3.5   234     5.9   949.9    0.00 
 244    7:20   0.12   54.0    70    3.4   242     5.9   950.0    0.00 
 244    7:30   0.13   54.3    70    2.8   241     5.0   950.0    0.00 
 244    7:40   0.16   54.6    69    3.1   247     6.7   950.1    0.00 
 244    7:50   0.20   54.9    68    3.3   222     7.0   950.1    0.00 
 244    8:00   0.21   55.0    67    3.4   232     7.2   950.2    0.00 
 244    8:10   0.26   55.6    66    3.5   256     7.6   950.3    0.00 
 244    8:20   0.24   56.5    63    5.1   260     8.9   950.5    0.00 
 244    8:30   0.24   56.1    64    4.7   263    10.1   950.6    0.00 
 244    8:40   0.30   56.5    62    5.6   290    10.2   950.6    0.00 
 244    8:50   0.49   57.6    60    5.1   268     9.7   950.4    0.00 
 244    9:00   0.32   58.2    59    3.5   276     8.1   950.6    0.00 
 244    9:10   0.33   57.7    60    3.1   170     8.2   950.6    0.00 
 244    9:20   0.73   57.1    60    3.9   179     7.4   950.6    0.00 
 244    9:30   0.83   59.5    55    4.4   223    10.4   950.7    0.00 
 244    9:40   0.85   60.4    54    3.3   194     7.4   950.8    0.00 
 244    9:50   0.88   61.9    51    5.9   234     9.4   950.9    0.00 
 244   10:00   0.83   61.6    51    4.0   222     7.9   950.9    0.00 
 244   10:10   0.84   62.1    50    4.0   254     8.3   950.9    0.00 
 244   10:20   0.84   62.6    50    6.0   258    11.5   951.0    0.00 
 244   10:30   0.86   64.1    47    6.1   269    11.5   951.0    0.00 
 244   10:40   0.86   64.1    46    4.4   248    11.6   951.0    0.00 
 244   10:50   0.87   63.5    46    5.1   261     9.5   951.0    0.00 
 244   11:00   0.89   63.0    47    5.6   221    10.8   950.9    0.00 
 244   11:10   0.90   63.3    47    5.5   205    11.0   950.9    0.00 
 244   11:20   0.92   64.0    45    5.9   244    12.1   950.9    0.00 
 244   11:30   0.95   65.3    43    4.0   231     9.8   950.7    0.00 
 244   11:40   0.98   65.6    42    5.9   267    10.9   950.7    0.00 
 244   11:50   0.97   66.7    41    5.9   238    10.4   950.7    0.00 
 244   12:00   0.93   66.4    41    4.7   248    10.4   950.7    0.00 
 244   12:10   0.91   66.7    40    4.8   257    11.7   950.6    0.00 
 244   12:20   0.82   66.4    40    7.2   248    15.1   950.6    0.00 
 244   12:30   0.78   66.4    40    6.2   246    10.7   950.5    0.00 
 244   12:40   1.00   68.3    38    8.0   269    14.7   950.4    0.00 
 244   12:50   0.92   67.9    38    4.0   233    10.7   950.4    0.00 
 244   13:00   0.92   67.3    38    4.5   223     8.7   950.3    0.00 
 244   13:10   0.95   67.7    39    5.5   261    11.4   950.2    0.00 
 244   13:20   0.93   68.5    38    6.2   239    12.7   950.1    0.00 
 244   13:30   0.91   69.6    37    5.2   239    11.7   950.1    0.00 
 244   13:40   0.86   68.7    39    7.3   240    13.3   950.2    0.00 
 244   13:50   0.81   69.3    38    9.0   265    15.4   950.2    0.00 
 244   14:00   0.84   68.1    41    7.0   230    14.0   950.2    0.00 
 244   14:10   0.81   68.6    41    8.0   268    17.8   950.2    0.00 
 244   14:20   0.79   68.4    42    8.0   262    17.5   950.1    0.00 

Return to Blue Oak Ranch Reserve graphs page.


Western Regional Climate Center,wrcc@dri.edu